createdAt,value
2023-03-14T00:02:03.085Z,97757.97
2023-03-14T00:04:49.709Z,97753.72
2023-03-14T00:07:25.776Z,97760.69
2023-03-14T00:10:06.300Z,97755.41
2023-03-14T00:13:00.786Z,97772.53
2023-03-14T00:15:43.450Z,97759.59
2023-03-14T00:18:40.783Z,97773.50
2023-03-14T00:21:23.957Z,97761.50
2023-03-14T00:24:01.202Z,97753.63
2023-03-14T00:26:34.865Z,97749.94
2023-03-14T00:29:19.277Z,97748.19
2023-03-14T00:32:01.927Z,97750.06
2023-03-14T00:35:10.301Z,97746.41
2023-03-14T00:37:48.677Z,97749.81
2023-03-14T00:40:35.487Z,97751.22
2023-03-14T00:43:46.773Z,97741.09
2023-03-14T00:46:36.724Z,97751.75
2023-03-14T00:49:22.423Z,97739.50
2023-03-14T00:52:08.348Z,97743.72
2023-03-14T00:54:47.426Z,97737.88
2023-03-14T00:57:19.185Z,97737.63
2023-03-14T01:00:06.523Z,97751.25
2023-03-14T01:03:02.596Z,97734.06
2023-03-14T01:05:45.942Z,97738.19
2023-03-14T01:08:28.976Z,97755.31
2023-03-14T01:11:15.124Z,97748.25
2023-03-14T01:13:55.591Z,97755.91
2023-03-14T01:16:36.725Z,97752.34
2023-03-14T01:19:26.363Z,97748.81
2023-03-14T01:22:01.811Z,97757.41
2023-03-14T01:24:40.982Z,97748.56
2023-03-14T01:27:12.952Z,97745.56
2023-03-14T01:29:43.701Z,97738.50
2023-03-14T01:32:17.354Z,97740.97
2023-03-14T01:35:01.571Z,97731.44
2023-03-14T01:37:43.535Z,97730.22
2023-03-14T01:40:24.182Z,97711.56
2023-03-14T01:43:19.725Z,97717.44
2023-03-14T01:46:31.091Z,97720.88
2023-03-14T01:49:38.739Z,97705.47
2023-03-14T01:52:40.197Z,97696.63
2023-03-14T01:55:25.742Z,97712.81
2023-03-14T01:58:08.355Z,97709.44
2023-03-14T02:00:49.125Z,97699.22
2023-03-14T02:03:41.708Z,97674.28
2023-03-14T02:06:25.392Z,97652.63
2023-03-14T02:08:56.884Z,97668.03
2023-03-14T02:11:45.107Z,97650.84
2023-03-14T02:14:52.625Z,97640.50
2023-03-14T02:17:49.128Z,97642.28
2023-03-14T02:21:01.168Z,97642.28
2023-03-14T02:24:22.767Z,97634.53
2023-03-14T02:27:15.717Z,97623.59
2023-03-14T02:30:17.069Z,97635.31
2023-03-14T02:32:59.278Z,97618.88
2023-03-14T02:36:02.304Z,97630.72
2023-03-14T02:38:48.167Z,97617.78
2023-03-14T02:41:20.402Z,97626.06
2023-03-14T02:44:11.314Z,97628.13
2023-03-14T02:46:52.562Z,97619.38
2023-03-14T02:49:37.135Z,97600.59
2023-03-14T02:52:32.011Z,97615.19
2023-03-14T02:55:28.857Z,97607.41
2023-03-14T02:58:29.719Z,97625.78
2023-03-14T03:01:15.344Z,97617.22
2023-03-14T03:03:59.351Z,97625.78
2023-03-14T03:06:35.959Z,97623.34
2023-03-14T03:09:17.623Z,97616.41
2023-03-14T03:12:00.882Z,97610.25
2023-03-14T03:14:34.964Z,97609.31
2023-03-14T03:17:38.844Z,97603.75
2023-03-14T03:20:35.499Z,97598.13
2023-03-14T03:23:42.021Z,97592.41
2023-03-14T03:26:14.087Z,97579.88
2023-03-14T03:28:58.983Z,97575.41
2023-03-14T03:31:35.104Z,97567.75
2023-03-14T03:34:10.675Z,97555.25
2023-03-14T03:36:52.053Z,97569.09
2023-03-14T03:39:35.668Z,97547.22
2023-03-14T03:42:13.768Z,97539.84
2023-03-14T03:44:44.466Z,97541.75
2023-03-14T03:47:28.203Z,97534.25
2023-03-14T03:50:18.325Z,97523.25
2023-03-14T03:53:09.115Z,97529.91
2023-03-14T03:55:59.958Z,97537.25
2023-03-14T03:58:41.310Z,97519.44
2023-03-14T04:01:35.086Z,97521.06
2023-03-14T04:04:06.454Z,97536.97
2023-03-14T04:07:05.200Z,97534.09
2023-03-14T04:09:52.118Z,97524.59
2023-03-14T04:12:46.200Z,97528.94
2023-03-14T04:15:37.179Z,97545.81
2023-03-14T04:18:26.291Z,97538.63
2023-03-14T04:21:05.445Z,97544.59
2023-03-14T04:24:20.537Z,97532.91
2023-03-14T04:27:03.116Z,97527.47
2023-03-14T04:29:54.189Z,97526.09
2023-03-14T04:32:47.637Z,97529.94
2023-03-14T04:35:18.764Z,97520.09
2023-03-14T04:38:04.212Z,97518.34
2023-03-14T04:40:47.933Z,97514.94
2023-03-14T04:43:34.900Z,97533.59
2023-03-14T04:46:17.129Z,97518.75
2023-03-14T04:48:58.788Z,97528.00
2023-03-14T04:52:05.429Z,97520.94
2023-03-14T04:54:50.814Z,97516.56
2023-03-14T04:58:06.543Z,97520.94
2023-03-14T05:01:04.122Z,97516.44
2023-03-14T05:03:56.146Z,97496.69
2023-03-14T05:06:51.729Z,97484.59
2023-03-14T05:09:58.220Z,97483.75
2023-03-14T05:13:01.728Z,97485.53
2023-03-14T05:15:54.046Z,97484.44
2023-03-14T05:18:45.309Z,97486.75
2023-03-14T05:21:47.707Z,97487.44
2023-03-14T05:24:40.522Z,97481.72
2023-03-14T05:27:31.961Z,97483.34
2023-03-14T05:30:32.215Z,97476.97
2023-03-14T05:33:59.120Z,97488.00
2023-03-14T05:36:46.604Z,97468.09
2023-03-14T05:39:53.474Z,97476.00
2023-03-14T05:42:44.111Z,97483.91
2023-03-14T05:45:29.813Z,97480.34
2023-03-14T05:48:30.253Z,97480.34
2023-03-14T05:51:37.557Z,97472.72
2023-03-14T05:54:25.350Z,97465.94
2023-03-14T05:57:43.930Z,97462.00
2023-03-14T06:00:39.143Z,97476.28
2023-03-14T06:03:45.095Z,97461.72
2023-03-14T06:06:25.939Z,97472.72
2023-03-14T06:08:57.882Z,97464.03
2023-03-14T06:11:34.878Z,97464.97
2023-03-14T06:14:17.225Z,97465.81
2023-03-14T06:17:00.341Z,97467.72
2023-03-14T06:19:49.628Z,97465.94
2023-03-14T06:22:39.490Z,97468.81
2023-03-14T06:25:11.896Z,97451.78
2023-03-14T06:27:55.552Z,97468.94
2023-03-14T06:30:37.944Z,97453.00
2023-03-14T06:33:28.593Z,97456.94
2023-03-14T06:36:23.120Z,97467.28
2023-03-14T06:38:56.314Z,97450.13
2023-03-14T06:41:53.087Z,97442.78
2023-03-14T06:44:45.668Z,97440.88
2023-03-14T06:47:26.905Z,97447.53
2023-03-14T06:50:17.930Z,97447.00
2023-03-14T06:52:51.490Z,97459.25
2023-03-14T06:55:51.751Z,97454.38
2023-03-14T06:58:38.300Z,97471.38
2023-03-14T07:01:31.584Z,97450.81
2023-03-14T07:04:20.979Z,97460.22
2023-03-14T07:07:12.023Z,97443.63
2023-03-14T07:10:15.764Z,97445.53
2023-03-14T07:12:47.791Z,97455.88
2023-03-14T07:15:43.730Z,97434.94
2023-03-14T07:18:28.960Z,97448.28
2023-03-14T07:21:00.540Z,97448.81
2023-03-14T07:23:39.338Z,97434.53
2023-03-14T07:26:36.108Z,97437.41
2023-03-14T07:29:22.863Z,97429.91
2023-03-14T07:32:08.822Z,97430.84
2023-03-14T07:34:42.352Z,97422.97
2023-03-14T07:37:32.201Z,97434.94
2023-03-14T07:40:30.549Z,97439.53
2023-03-14T07:43:02.453Z,97444.28
2023-03-14T07:46:00.448Z,97456.28
2023-03-14T07:48:50.708Z,97450.13
2023-03-14T07:51:36.737Z,97459.25
2023-03-14T07:54:32.148Z,97459.00
2023-03-14T07:57:18.447Z,97458.31
2023-03-14T07:59:52.144Z,97467.00
2023-03-14T08:02:31.871Z,97472.19
2023-03-14T08:05:21.862Z,97460.44
2023-03-14T08:07:56.030Z,97467.81
2023-03-14T08:10:42.870Z,97472.56
2023-03-14T08:14:14.127Z,97473.66
2023-03-14T08:16:48.595Z,97467.94
2023-03-14T08:19:43.362Z,97483.06
2023-03-14T08:22:26.586Z,97481.41
2023-03-14T08:25:17.498Z,97469.16
2023-03-14T08:28:05.586Z,97459.09
2023-03-14T08:30:59.142Z,97465.53
2023-03-14T08:33:40.101Z,97475.03
2023-03-14T08:36:30.144Z,97494.78
2023-03-14T08:39:24.892Z,97487.84
2023-03-14T08:41:56.426Z,97472.31
2023-03-14T08:44:39.446Z,97478.44
2023-03-14T08:47:24.907Z,97478.72
2023-03-14T08:50:05.564Z,97479.41
2023-03-14T08:52:59.693Z,97460.06
2023-03-14T08:55:42.721Z,97471.84
2023-03-14T08:58:26.132Z,97459.56
2023-03-14T09:00:58.083Z,97458.56
2023-03-14T09:03:43.337Z,97452.81
2023-03-14T09:06:24.048Z,97468.75
2023-03-14T09:09:08.252Z,97465.44
2023-03-14T09:11:56.260Z,97476.06
2023-03-14T09:14:42.828Z,97468.53
2023-03-14T09:17:23.858Z,97461.25
2023-03-14T09:20:02.011Z,97465.34
2023-03-14T09:22:48.892Z,97468.75
2023-03-14T09:25:23.513Z,97459.59
2023-03-14T09:28:27.247Z,97478.25
2023-03-14T09:31:01.972Z,97485.50
2023-03-14T09:33:40.282Z,97476.22
2023-03-14T09:36:35.390Z,97482.53
2023-03-14T09:39:24.630Z,97480.97
2023-03-14T09:42:30.142Z,97480.53
2023-03-14T09:45:07.392Z,97490.34
2023-03-14T09:47:56.532Z,97481.09
2023-03-14T09:50:44.882Z,97501.13
2023-03-14T09:53:56.300Z,97489.66
2023-03-14T09:56:49.862Z,97495.66
2023-03-14T09:59:45.042Z,97474.81
2023-03-14T10:02:41.282Z,97491.88
2023-03-14T10:05:21.192Z,97481.22
2023-03-14T10:07:54.922Z,97490.91
2023-03-14T10:10:37.113Z,97485.72
2023-03-14T10:13:21.207Z,97494.47
2023-03-14T10:16:12.502Z,97501.03
2023-03-14T10:19:08.235Z,97504.72
2023-03-14T10:21:58.225Z,97494.00
2023-03-14T10:24:54.068Z,97490.72
2023-03-14T10:27:53.055Z,97504.50
2023-03-14T10:30:49.539Z,97497.84
2023-03-14T10:33:39.601Z,97490.25
2023-03-14T10:36:38.889Z,97495.50
2023-03-14T10:39:53.968Z,97496.63
2023-03-14T10:42:45.898Z,97500.88
2023-03-14T10:45:54.010Z,97505.13
2023-03-14T10:48:55.811Z,97493.69
2023-03-14T10:51:48.560Z,97499.25
2023-03-14T10:54:34.482Z,97497.78
2023-03-14T10:57:22.208Z,97497.38
2023-03-14T11:00:04.667Z,97495.09
2023-03-14T11:03:21.989Z,97500.50
2023-03-14T11:06:27.731Z,97493.00
2023-03-14T11:09:17.407Z,97485.53
2023-03-14T11:12:42.180Z,97494.69
2023-03-14T11:15:37.408Z,97508.97
2023-03-14T11:19:15.054Z,97514.09
2023-03-14T11:22:02.469Z,97511.53
2023-03-14T11:25:24.686Z,97516.28
2023-03-14T11:28:18.063Z,97539.97
2023-03-14T11:31:03.030Z,97525.09
2023-03-14T11:33:42.005Z,97524.41
2023-03-14T11:36:41.054Z,97546.88
2023-03-14T11:39:20.611Z,97532.44
2023-03-14T11:42:17.044Z,97536.94
2023-03-14T11:45:17.220Z,97541.53
2023-03-14T11:47:53.059Z,97535.31
2023-03-14T11:50:33.150Z,97560.19
2023-03-14T11:53:45.829Z,97541.41
2023-03-14T11:56:35.765Z,97555.81
2023-03-14T11:59:24.759Z,97578.78
2023-03-14T12:02:24.885Z,97569.94
2023-03-14T12:05:55.232Z,97604.88
2023-03-14T12:08:59.767Z,97593.56
2023-03-14T12:11:46.079Z,97612.97
2023-03-14T12:14:38.233Z,97630.94
2023-03-14T12:17:32.828Z,97635.59
2023-03-14T12:20:20.203Z,97651.91
2023-03-14T12:23:02.727Z,97666.78
2023-03-14T12:26:50.159Z,97689.22
2023-03-14T12:29:56.274Z,97682.34
2023-03-14T12:32:38.525Z,97709.63
2023-03-14T12:35:50.913Z,97736.22
2023-03-14T12:38:40.322Z,97753.50
2023-03-14T12:41:32.769Z,97762.44
2023-03-14T12:45:15.582Z,97778.38
2023-03-14T12:48:16.811Z,97791.41
2023-03-14T12:51:11.634Z,97812.88
2023-03-14T12:54:24.955Z,97788.94
2023-03-14T12:57:27.907Z,97786.81
2023-03-14T13:00:15.079Z,97804.66
2023-03-14T13:03:02.111Z,97811.66
2023-03-14T13:05:37.170Z,97819.63
2023-03-14T13:08:15.555Z,97823.03
2023-03-14T13:11:04.756Z,97805.44
2023-03-14T13:14:04.969Z,97843.31
2023-03-14T13:16:41.000Z,97836.28
2023-03-14T13:19:36.155Z,97874.75
2023-03-14T13:22:33.210Z,97872.63
2023-03-14T13:25:10.809Z,97862.28
2023-03-14T13:27:46.836Z,97866.41
2023-03-14T13:31:06.995Z,97898.06
2023-03-14T13:34:05.302Z,97897.00
2023-03-14T13:36:40.006Z,97880.84
2023-03-14T13:39:45.636Z,97914.41
2023-03-14T13:42:30.217Z,97942.16
2023-03-14T13:45:22.099Z,97970.91
2023-03-14T13:48:18.081Z,97978.03
2023-03-14T13:51:15.531Z,97990.59
2023-03-14T13:54:02.742Z,98001.13
2023-03-14T13:56:38.538Z,98023.63
2023-03-14T13:59:28.252Z,98034.78
2023-03-14T14:02:18.718Z,98087.66
2023-03-14T14:05:30.978Z,98077.63
2023-03-14T14:08:07.342Z,98072.97
2023-03-14T14:10:51.482Z,98085.56
2023-03-14T14:13:28.452Z,98097.00
2023-03-14T14:16:12.702Z,98094.50
2023-03-14T14:18:47.697Z,98101.22
2023-03-14T14:21:51.366Z,98113.38
2023-03-14T14:24:25.623Z,98117.78
2023-03-14T14:27:27.456Z,98121.38
2023-03-14T14:30:09.152Z,98108.78
2023-03-14T14:32:55.778Z,98144.41
2023-03-14T14:35:40.594Z,98135.09
2023-03-14T14:38:30.670Z,98142.09
2023-03-14T14:41:20.205Z,98147.66
2023-03-14T14:44:09.866Z,98147.94
2023-03-14T14:46:50.616Z,98150.06
2023-03-14T14:49:43.290Z,98175.41
2023-03-14T14:52:24.975Z,98172.03
2023-03-14T14:55:37.564Z,98171.41
2023-03-14T14:58:29.190Z,98186.16
2023-03-14T15:01:28.240Z,98202.25
2023-03-14T15:04:03.354Z,98217.41
2023-03-14T15:06:51.449Z,98200.50
2023-03-14T15:09:29.014Z,98217.19
2023-03-14T15:12:04.206Z,98217.06
2023-03-14T15:14:43.599Z,98207.81
2023-03-14T15:17:20.483Z,98225.69
2023-03-14T15:20:09.175Z,98236.59
2023-03-14T15:22:39.921Z,98239.47
2023-03-14T15:25:54.578Z,98225.91
2023-03-14T15:28:45.590Z,98243.72
2023-03-14T15:31:20.125Z,98247.47
2023-03-14T15:34:00.345Z,98246.03
2023-03-14T15:36:34.016Z,98251.19
2023-03-14T15:39:28.635Z,98255.28
2023-03-14T15:42:18.275Z,98254.72
2023-03-14T15:45:05.118Z,98261.72
2023-03-14T15:47:52.760Z,98262.78
2023-03-14T15:50:55.759Z,98268.66
2023-03-14T15:53:57.255Z,98281.94
2023-03-14T15:56:55.356Z,98283.81
2023-03-14T15:59:34.296Z,98283.38
2023-03-14T16:02:14.468Z,98303.53
2023-03-14T16:05:05.116Z,98282.44
2023-03-14T16:07:59.117Z,98290.97
2023-03-14T16:10:50.067Z,98302.84
2023-03-14T16:13:50.232Z,98287.91
2023-03-14T16:16:43.444Z,98304.22
2023-03-14T16:19:29.816Z,98303.50
2023-03-14T16:22:01.366Z,98307.31
2023-03-14T16:24:45.561Z,98304.84
2023-03-14T16:28:05.088Z,98301.72
2023-03-14T16:30:55.399Z,98306.25
2023-03-14T16:33:29.339Z,98305.75
2023-03-14T16:36:13.124Z,98300.13
2023-03-14T16:39:04.311Z,98312.47
2023-03-14T16:41:41.758Z,98325.72
2023-03-14T16:44:36.846Z,98325.19
2023-03-14T16:47:18.292Z,98336.94
2023-03-14T16:50:02.682Z,98334.63
2023-03-14T16:52:50.202Z,98346.50
2023-03-14T16:55:58.148Z,98346.97
2023-03-14T16:58:39.016Z,98350.31
2023-03-14T17:01:31.349Z,98363.88
2023-03-14T17:04:12.232Z,98377.66
2023-03-14T17:07:08.492Z,98375.91
2023-03-14T17:10:04.680Z,98383.97
2023-03-14T17:12:49.690Z,98383.13
2023-03-14T17:15:25.137Z,98388.28
2023-03-14T17:18:07.528Z,98386.38
2023-03-14T17:21:00.773Z,98402.38
2023-03-14T17:23:48.172Z,98408.06
2023-03-14T17:26:44.239Z,98425.38
2023-03-14T17:29:41.897Z,98436.66
2023-03-14T17:32:20.495Z,98430.78
2023-03-14T17:34:58.955Z,98451.13
2023-03-14T17:37:39.937Z,98460.63
2023-03-14T17:40:34.054Z,98460.81
2023-03-14T17:43:23.800Z,98467.69
2023-03-14T17:46:15.363Z,98472.66
2023-03-14T17:48:50.280Z,98479.69
2023-03-14T17:52:09.304Z,98503.66
2023-03-14T17:54:55.781Z,98507.91
2023-03-14T17:57:52.154Z,98517.38
2023-03-14T18:00:34.217Z,98521.81
2023-03-14T18:03:25.186Z,98537.25
2023-03-14T18:06:09.105Z,98532.34
2023-03-14T18:08:44.188Z,98547.31
2023-03-14T18:11:25.380Z,98554.53
2023-03-14T18:13:56.353Z,98562.13
2023-03-14T18:16:42.129Z,98565.75
2023-03-14T18:19:39.084Z,98586.88
2023-03-14T18:22:20.355Z,98590.09
2023-03-14T18:25:08.211Z,98593.97
2023-03-14T18:27:56.319Z,98602.63
2023-03-14T18:30:28.093Z,98606.31
2023-03-14T18:33:18.062Z,98618.84
2023-03-14T18:36:24.081Z,98621.63
2023-03-14T18:38:59.108Z,98624.38
2023-03-14T18:41:35.451Z,98645.34
2023-03-14T18:44:21.355Z,98652.25
2023-03-14T18:46:55.576Z,98657.19
2023-03-14T18:50:01.154Z,98655.44
2023-03-14T18:52:39.284Z,98664.34
2023-03-14T18:55:29.421Z,98670.34
2023-03-14T18:58:08.348Z,98679.22
2023-03-14T19:00:59.644Z,98679.91
2023-03-14T19:03:43.605Z,98681.22
2023-03-14T19:06:25.736Z,98683.69
2023-03-14T19:09:08.941Z,98695.78
2023-03-14T19:11:52.421Z,98694.13
2023-03-14T19:14:48.301Z,98704.25
2023-03-14T19:17:29.417Z,98716.34
2023-03-14T19:20:25.308Z,98715.94
2023-03-14T19:23:09.160Z,98722.91
2023-03-14T19:25:59.676Z,98728.19
2023-03-14T19:28:37.477Z,98741.69
2023-03-14T19:31:18.684Z,98737.16
2023-03-14T19:34:00.000Z,98749.59
2023-03-14T19:37:05.184Z,98759.09
2023-03-14T19:39:50.743Z,98763.41
2023-03-14T19:42:36.881Z,98768.31
2023-03-14T19:45:12.154Z,98776.84
2023-03-14T19:47:53.143Z,98773.75
2023-03-14T19:50:36.431Z,98791.91
2023-03-14T19:53:09.817Z,98806.63
2023-03-14T19:55:54.935Z,98806.69
2023-03-14T19:58:34.574Z,98814.25
2023-03-14T20:01:06.442Z,98811.81
2023-03-14T20:03:51.527Z,98816.13
2023-03-14T20:06:22.159Z,98831.53
2023-03-14T20:09:18.312Z,98846.00
2023-03-14T20:12:40.312Z,98845.81
2023-03-14T20:15:30.437Z,98856.75
2023-03-14T20:18:06.345Z,98864.38
2023-03-14T20:20:52.865Z,98875.63
2023-03-14T20:23:34.436Z,98879.19
2023-03-14T20:26:09.452Z,98892.44
2023-03-14T20:29:24.615Z,98897.22
2023-03-14T20:32:10.108Z,98910.53
2023-03-14T20:35:17.844Z,98901.47
2023-03-14T20:37:52.666Z,98921.63
2023-03-14T20:40:47.242Z,98931.06
2023-03-14T20:43:21.553Z,98943.03
2023-03-14T20:46:23.486Z,98954.94
2023-03-14T20:49:02.762Z,98957.38
2023-03-14T20:51:49.199Z,98957.00
2023-03-14T20:54:46.703Z,98962.00
2023-03-14T20:57:17.467Z,98969.81
2023-03-14T21:00:28.409Z,98975.22
2023-03-14T21:03:25.529Z,98981.19
2023-03-14T21:06:07.862Z,98989.50
2023-03-14T21:08:47.448Z,98992.88
2023-03-14T21:11:52.833Z,98995.38
2023-03-14T21:14:26.433Z,98989.50
2023-03-14T21:17:04.251Z,98986.16
2023-03-14T21:20:02.821Z,98991.81
2023-03-14T21:22:38.675Z,98990.09
2023-03-14T21:25:23.596Z,98996.28
2023-03-14T21:28:09.325Z,99016.03
2023-03-14T21:30:52.061Z,98994.09
2023-03-14T21:33:34.237Z,99047.47
2023-03-14T21:36:14.716Z,99047.91
2023-03-14T21:39:11.726Z,99054.97
2023-03-14T21:42:12.927Z,99055.09
2023-03-14T21:44:58.709Z,99059.47
2023-03-14T21:47:53.002Z,99050.31
2023-03-14T21:50:24.882Z,99063.72
2023-03-14T21:53:13.262Z,99063.47
2023-03-14T21:56:20.673Z,99062.41
2023-03-14T21:59:02.297Z,99067.78
2023-03-14T22:01:44.756Z,99071.84
2023-03-14T22:04:20.653Z,99072.69
2023-03-14T22:06:51.795Z,99080.09
2023-03-14T22:09:59.187Z,99078.19
2023-03-14T22:12:39.762Z,99076.38
2023-03-14T22:15:19.111Z,99076.50
2023-03-14T22:18:14.407Z,99075.13
2023-03-14T22:21:03.123Z,99084.59
2023-03-14T22:23:45.434Z,99088.13
2023-03-14T22:26:45.849Z,99099.72
2023-03-14T22:30:10.132Z,99109.63
2023-03-14T22:32:41.194Z,99109.41
2023-03-14T22:35:31.787Z,99107.50
2023-03-14T22:38:10.254Z,99115.75
2023-03-14T22:40:41.327Z,99122.19
2023-03-14T22:43:16.184Z,99115.22
2023-03-14T22:46:07.071Z,99128.50
2023-03-14T22:49:10.378Z,99132.75
2023-03-14T22:52:16.649Z,99135.06
2023-03-14T22:54:57.399Z,99136.63
2023-03-14T22:57:51.389Z,99140.94
2023-03-14T23:00:55.448Z,99148.72
2023-03-14T23:03:26.195Z,99156.44
2023-03-14T23:06:14.164Z,99154.09
2023-03-14T23:08:57.705Z,99165.16
2023-03-14T23:11:38.876Z,99171.41
2023-03-14T23:14:11.477Z,99174.13
2023-03-14T23:17:11.216Z,99186.06
2023-03-14T23:20:07.468Z,99175.09
2023-03-14T23:23:09.296Z,99186.84
2023-03-14T23:25:56.267Z,99186.13
2023-03-14T23:28:44.404Z,99189.78
2023-03-14T23:31:32.143Z,99194.06
2023-03-14T23:34:33.124Z,99200.09
2023-03-14T23:37:07.791Z,99206.94
2023-03-14T23:39:46.122Z,99208.63
2023-03-14T23:42:22.764Z,99206.06
2023-03-14T23:44:59.829Z,99212.84
2023-03-14T23:47:43.095Z,99216.22
2023-03-14T23:50:31.459Z,99225.78
2023-03-14T23:53:13.166Z,99231.88
2023-03-14T23:55:47.144Z,99244.78
2023-03-14T23:58:43.000Z,99260.22
